Terminal Aerodrome Forecast
Issued by NWS

Home | Current Version | Previous Version | Text Only | Print | Product List | Glossary On
Versions: 1 2 3 4 5 6 7 8 9 10 11 12 13 14
000
FTUS45 KABQ 210000 CCA
TAFLVS
TAF COR
KLVS 210010Z 2100/2124 32011KT P6SM SCT070 BKN110
     FM210700 VRB05KT P6SM SKC
     FM211800 17010KT P6SM FEW120=

USA.gov is the U.S. government's official web portal to all federal, state and local government web resources and services.